Humidity-temperature Sensor

Selected Measurement Type: Air Temperature

 
Air Temperature [°C]     6 entries per hour
Showing data from 6/5/2017 (00:00:00 Z) to 6/4/2017 (00:01:00 Z)
Previous Next [ Day | 3-Days | 7-Days ]
First Last
Prev [ Day | 3-Days | 7-Days ] Next
First Last

Start Time:     :
End Time:     :     
Time (in GMT) :00 :50 :40 :30 :20 :10
Previous Next [ Day | 3-Days | 7-Days ]
First Last
Prev [ Day | 3-Days | 7-Days ] Next
First Last


123 => good data
MM => data is determined as missing
-- => data not received/configured
Back to Top Back to Top
6/5/2017 00:00 to 23:10 27.35 27.37 27.35 27.38 27.47 27.35
6/4/2017 23:00 to 22:10 27.45 27.57 27.46 27.42 27.34 27.50
6/4/2017 22:00 to 21:10 27.65 27.57 27.53 27.49 27.45 27.38
6/4/2017 21:00 to 20:10 27.47 27.48 27.46 27.35 27.42 27.29
6/4/2017 20:00 to 19:10 27.52 27.54 27.50 27.45 27.55 27.38
6/4/2017 19:00 to 18:10 27.31 27.43 27.36 27.40 27.45 27.48
6/4/2017 18:00 to 17:10 27.35 27.41 27.39 27.42 27.41 27.65
6/4/2017 17:00 to 16:10 27.41 27.45 27.39 27.49 27.38 27.30
6/4/2017 16:00 to 15:10 27.45 27.54 27.50 27.39 27.44 27.35
6/4/2017 15:00 to 14:10 27.28 27.46 27.20 27.23 27.19 27.20
6/4/2017 14:00 to 13:10 27.29 27.20 27.07 27.06 27.19 27.07
6/4/2017 13:00 to 12:10 26.99 27.08 26.98 27.14 26.73 26.89
6/4/2017 12:00 to 11:10 26.89 26.94 26.85 26.56 27.00 26.96
6/4/2017 11:00 to 10:10 26.83 26.91 26.92 26.85 26.81 26.94
6/4/2017 10:00 to 9:10 26.93 26.97 26.91 26.97 27.03 26.86
6/4/2017 09:00 to 8:10 26.94 26.87 26.92 27.04 26.95 26.90
6/4/2017 08:00 to 7:10 27.00 26.93 26.99 27.01 27.00 27.13
6/4/2017 07:00 to 6:10 27.09 27.08 27.11 27.05 27.16 27.19
6/4/2017 06:00 to 5:10 27.17 27.27 27.22 27.29 27.30 27.29
6/4/2017 05:00 to 4:10 27.25 27.23 27.24 27.29 27.20 27.23
6/4/2017 04:00 to 3:10 27.33 27.23 27.30 27.22 27.36 27.21
6/4/2017 03:00 to 2:10 27.14 27.28 27.28 27.33 27.22 27.29
6/4/2017 02:00 to 1:10 27.14 27.37 27.21 27.21 27.37 27.41
6/4/2017 01:00 to 0:10 27.44 27.56 27.56 27.58 27.50 27.47